createdAt,value
2019-01-20T00:02:21.817Z,87.88
2019-01-20T00:06:22.787Z,87.95
2019-01-20T00:10:23.822Z,88.00
2019-01-20T00:14:25.014Z,88.03
2019-01-20T00:18:27.730Z,88.08
2019-01-20T00:22:28.702Z,88.08
2019-01-20T00:26:30.172Z,88.18
2019-01-20T00:30:31.795Z,88.16
2019-01-20T00:34:33.356Z,88.11
2019-01-20T00:38:34.337Z,88.16
2019-01-20T00:42:35.370Z,88.25
2019-01-20T00:46:36.614Z,88.22
2019-01-20T00:50:38.570Z,88.13
2019-01-20T00:54:39.732Z,88.06
2019-01-20T00:58:41.084Z,88.17
2019-01-20T01:02:42.906Z,88.06
2019-01-20T01:06:44.518Z,87.87
2019-01-20T01:10:48.897Z,88.19
2019-01-20T01:14:50.609Z,88.63
2019-01-20T01:18:54.267Z,88.38
2019-01-20T01:22:55.946Z,89.41
2019-01-20T01:26:56.911Z,88.95
2019-01-20T01:30:58.152Z,89.29
2019-01-20T01:34:59.809Z,89.41
2019-01-20T01:39:01.846Z,89.04
2019-01-20T01:43:04.585Z,88.98
2019-01-20T01:47:05.714Z,89.09
2019-01-20T01:51:06.689Z,88.90
2019-01-20T01:55:09.204Z,88.99
2019-01-20T01:59:10.434Z,88.85
2019-01-20T02:03:11.497Z,88.68
2019-01-20T02:07:13.038Z,88.51
2019-01-20T02:11:15.022Z,88.44
2019-01-20T02:15:18.098Z,88.45
2019-01-20T02:19:19.917Z,88.36
2019-01-20T02:23:21.655Z,88.42
2019-01-20T02:27:22.698Z,88.40
2019-01-20T02:31:23.677Z,88.36
2019-01-20T02:35:25.064Z,88.22
2019-01-20T02:39:27.094Z,88.31
2019-01-20T02:43:28.132Z,88.09
2019-01-20T02:47:29.071Z,88.08
2019-01-20T02:51:30.075Z,88.17
2019-01-20T02:55:31.046Z,88.36
2019-01-20T02:59:32.056Z,88.34
2019-01-20T03:03:33.030Z,88.35
2019-01-20T03:07:34.111Z,88.14
2019-01-20T03:11:35.276Z,88.07
2019-01-20T03:15:38.262Z,87.94
2019-01-20T03:19:39.571Z,87.89
2019-01-20T03:23:40.587Z,87.91
2019-01-20T03:27:41.824Z,87.50
2019-01-20T03:31:42.837Z,87.50
2019-01-20T03:35:43.882Z,87.29
2019-01-20T03:39:44.871Z,87.20
2019-01-20T03:43:46.432Z,86.84
2019-01-20T03:47:48.162Z,86.17
2019-01-20T03:51:49.839Z,85.72
2019-01-20T03:55:51.327Z,85.54
2019-01-20T03:59:52.974Z,85.09
2019-01-20T04:03:54.250Z,85.36
2019-01-20T04:07:55.674Z,85.52
2019-01-20T04:11:58.432Z,84.79
2019-01-20T04:16:00.011Z,84.95
2019-01-20T04:20:01.761Z,85.11
2019-01-20T04:24:03.323Z,85.24
2019-01-20T04:28:04.984Z,85.37
2019-01-20T04:32:06.724Z,85.32
2019-01-20T04:36:07.751Z,85.25
2019-01-20T04:40:12.147Z,85.29
2019-01-20T04:44:13.346Z,85.63
2019-01-20T04:48:14.804Z,85.49
2019-01-20T04:52:16.076Z,85.69
2019-01-20T04:56:17.395Z,85.61
2019-01-20T05:00:21.854Z,85.53
2019-01-20T05:04:24.009Z,85.79
2019-01-20T05:08:26.219Z,85.53
2019-01-20T05:12:27.708Z,85.66
2019-01-20T05:16:28.711Z,85.68
2019-01-20T05:20:30.038Z,85.70
2019-01-20T05:24:32.393Z,85.74
2019-01-20T05:28:34.964Z,85.82
2019-01-20T05:32:35.990Z,85.99
2019-01-20T05:36:38.446Z,85.93
2019-01-20T05:40:39.999Z,85.85
2019-01-20T05:44:41.147Z,85.46
2019-01-20T05:48:42.844Z,85.63
2019-01-20T05:52:44.353Z,84.52
2019-01-20T05:56:46.962Z,83.76
2019-01-20T06:00:47.932Z,83.30
2019-01-20T06:04:48.921Z,83.28
2019-01-20T06:08:52.406Z,83.28
2019-01-20T06:12:55.891Z,83.23
2019-01-20T06:16:57.055Z,83.77
2019-01-20T06:20:58.678Z,83.65
2019-01-20T06:24:59.676Z,83.34
2019-01-20T06:29:00.663Z,83.66
2019-01-20T06:33:02.101Z,83.58
2019-01-20T06:37:03.173Z,83.22
2019-01-20T06:41:04.111Z,83.19
2019-01-20T06:45:05.686Z,83.80
2019-01-20T06:49:06.686Z,83.09
2019-01-20T06:53:07.906Z,83.25
2019-01-20T06:57:08.886Z,83.26
2019-01-20T07:01:10.941Z,82.96
2019-01-20T07:05:11.986Z,83.16
2019-01-20T07:09:16.106Z,82.38
2019-01-20T07:13:18.165Z,82.80
2019-01-20T07:17:19.186Z,82.73
2019-01-20T07:21:20.221Z,81.91
2019-01-20T07:25:21.771Z,81.82
2019-01-20T07:29:22.846Z,81.59
2019-01-20T07:33:23.865Z,81.17
2019-01-20T07:37:24.954Z,81.25
2019-01-20T07:41:26.012Z,81.60
2019-01-20T07:45:26.994Z,81.75
2019-01-20T07:49:28.062Z,81.77
2019-01-20T07:53:29.450Z,81.80
2019-01-20T07:57:30.517Z,81.83
2019-01-20T08:01:31.488Z,81.75
2019-01-20T08:05:32.514Z,82.00
2019-01-20T08:09:33.522Z,81.87
2019-01-20T08:13:35.126Z,82.16
2019-01-20T08:17:36.575Z,81.27
2019-01-20T08:21:38.080Z,81.27
2019-01-20T08:25:40.029Z,81.76
2019-01-20T08:29:42.015Z,81.90
2019-01-20T08:33:42.994Z,81.53
2019-01-20T08:37:44.203Z,81.38
2019-01-20T08:41:46.001Z,81.38
2019-01-20T08:46:17.640Z,81.50
2019-01-20T08:50:19.169Z,81.83
2019-01-20T08:54:20.641Z,81.83
2019-01-20T08:58:21.628Z,81.84
2019-01-20T09:02:23.109Z,82.09
2019-01-20T09:06:25.866Z,81.79
2019-01-20T09:10:29.005Z,81.79
2019-01-20T09:14:29.953Z,81.82
2019-01-20T09:18:31.719Z,82.14
2019-01-20T09:22:32.736Z,82.14
2019-01-20T09:26:34.333Z,81.74
2019-01-20T09:30:35.763Z,81.74
2019-01-20T09:34:36.797Z,82.02
2019-01-20T09:38:37.794Z,81.89
2019-01-20T09:42:39.029Z,81.83
2019-01-20T09:46:40.018Z,82.33
2019-01-20T09:50:41.473Z,81.90
2019-01-20T09:54:43.205Z,81.99
2019-01-20T09:58:47.045Z,81.99
2019-01-20T10:02:48.278Z,81.96
2019-01-20T10:06:49.808Z,81.79
2019-01-20T10:10:50.800Z,81.39
2019-01-20T10:14:55.802Z,81.42
2019-01-20T10:19:00.001Z,81.37
2019-01-20T10:23:01.824Z,81.25
2019-01-20T10:27:02.958Z,81.11
2019-01-20T10:31:05.914Z,80.96
2019-01-20T10:35:07.890Z,80.70
2019-01-20T10:39:12.284Z,80.90
2019-01-20T10:43:14.271Z,80.21
2019-01-20T10:47:16.324Z,80.66
2019-01-20T10:51:17.959Z,80.69
2019-01-20T10:55:19.495Z,80.96
2019-01-20T10:59:21.055Z,80.97
2019-01-20T11:03:22.661Z,80.79
2019-01-20T11:07:24.063Z,80.71
2019-01-20T11:11:25.105Z,80.69
2019-01-20T11:15:26.106Z,80.75
2019-01-20T11:19:27.805Z,80.60
2019-01-20T11:23:31.254Z,80.82
2019-01-20T11:27:36.898Z,80.57
2019-01-20T11:31:42.930Z,80.62
2019-01-20T11:35:47.246Z,80.57
2019-01-20T11:39:48.207Z,80.90
2019-01-20T11:43:51.711Z,80.59
2019-01-20T11:47:56.250Z,80.59
2019-01-20T11:51:58.585Z,80.67
2019-01-20T11:56:00.553Z,80.74
2019-01-20T12:00:01.639Z,80.54
2019-01-20T12:04:02.885Z,80.95
2019-01-20T12:08:03.951Z,80.32
2019-01-20T12:12:04.903Z,80.32
2019-01-20T12:16:06.886Z,80.32
2019-01-20T12:20:08.996Z,80.07
2019-01-20T12:24:10.029Z,80.74
2019-01-20T12:28:11.277Z,80.68
2019-01-20T12:32:12.311Z,80.90
2019-01-20T12:36:13.412Z,80.75
2019-01-20T12:40:18.014Z,80.87
2019-01-20T12:44:19.002Z,80.94
2019-01-20T12:48:20.190Z,81.35
2019-01-20T12:52:21.667Z,81.22
2019-01-20T12:56:23.406Z,81.63
2019-01-20T13:00:24.470Z,81.58
2019-01-20T13:04:25.527Z,81.69
2019-01-20T13:08:27.187Z,81.76
2019-01-20T13:12:28.676Z,82.14
2019-01-20T13:16:29.737Z,82.16
2019-01-20T13:20:30.902Z,82.40
2019-01-20T13:24:32.097Z,82.33
2019-01-20T13:28:33.137Z,82.48
2019-01-20T13:32:34.146Z,82.98
2019-01-20T13:36:35.181Z,82.76
2019-01-20T13:40:42.332Z,82.76
2019-01-20T13:44:46.279Z,83.05
2019-01-20T13:48:46.096Z,83.27
2019-01-20T13:52:47.111Z,83.27
2019-01-20T13:56:48.839Z,83.98
2019-01-20T14:00:50.434Z,83.42
2019-01-20T14:04:51.447Z,83.57
2019-01-20T14:08:52.572Z,84.82
2019-01-20T14:12:54.257Z,83.87
2019-01-20T14:16:55.377Z,83.82
2019-01-20T14:20:58.351Z,84.14
2019-01-20T14:24:59.848Z,84.64
2019-01-20T14:29:02.092Z,85.82
2019-01-20T14:33:08.125Z,84.96
2019-01-20T14:37:10.565Z,84.59
2019-01-20T14:41:12.791Z,85.75
2019-01-20T14:45:14.689Z,85.58
2019-01-20T14:49:19.897Z,85.60
2019-01-20T14:53:23.429Z,86.24
2019-01-20T14:57:24.785Z,85.65
2019-01-20T15:01:26.232Z,86.09
2019-01-20T15:05:27.812Z,85.62
2019-01-20T15:09:29.407Z,85.11
2019-01-20T15:13:30.761Z,84.92
2019-01-20T15:17:34.520Z,84.82
2019-01-20T15:21:35.591Z,84.69
2019-01-20T15:25:36.541Z,84.67
2019-01-20T15:29:37.741Z,84.70
2019-01-20T15:33:39.098Z,84.62
2019-01-20T15:37:40.112Z,85.18
2019-01-20T15:41:41.193Z,84.86
2019-01-20T15:45:42.164Z,85.17
2019-01-20T15:49:43.332Z,85.10
2019-01-20T15:53:44.386Z,85.09
2019-01-20T15:57:45.425Z,84.84
2019-01-20T16:01:46.456Z,84.53
2019-01-20T16:05:47.368Z,84.69
2019-01-20T16:09:48.348Z,85.32
2019-01-20T16:13:49.321Z,84.67
2019-01-20T16:17:53.158Z,84.73
2019-01-20T16:21:54.732Z,84.44
2019-01-20T16:25:55.707Z,84.86
2019-01-20T16:29:57.306Z,85.75
2019-01-20T16:33:58.381Z,85.40
2019-01-20T16:38:00.228Z,85.43
2019-01-20T16:42:01.439Z,85.61
2019-01-20T16:46:02.393Z,85.41
2019-01-20T16:50:03.354Z,85.16
2019-01-20T16:54:04.410Z,85.18
2019-01-20T16:58:05.517Z,84.86
2019-01-20T17:02:06.481Z,84.93
2019-01-20T17:06:07.606Z,84.85
2019-01-20T17:10:15.017Z,84.95
2019-01-20T17:14:16.014Z,84.92
2019-01-20T17:18:17.614Z,84.87
2019-01-20T17:22:18.752Z,84.97
2019-01-20T17:26:20.198Z,85.30
2019-01-20T17:30:23.913Z,85.26
2019-01-20T17:34:24.940Z,85.15
2019-01-20T17:38:25.950Z,85.36
2019-01-20T17:42:27.101Z,85.66
2019-01-20T17:46:28.188Z,85.48
2019-01-20T17:50:35.106Z,85.11
2019-01-20T17:54:36.138Z,85.17
2019-01-20T17:58:38.158Z,84.94
2019-01-20T18:02:39.254Z,85.44
2019-01-20T18:06:41.148Z,85.78
2019-01-20T18:10:43.066Z,85.54
2019-01-20T18:14:44.528Z,85.56
2019-01-20T18:18:46.067Z,85.57
2019-01-20T18:22:47.374Z,85.36
2019-01-20T18:26:48.445Z,85.15
2019-01-20T18:30:50.202Z,85.23
2019-01-20T18:34:51.278Z,85.11
2019-01-20T18:38:52.246Z,85.01
2019-01-20T18:42:53.325Z,85.29
2019-01-20T18:46:57.375Z,85.32
2019-01-20T18:50:59.249Z,85.38
2019-01-20T18:55:00.257Z,84.99
2019-01-20T18:59:01.793Z,85.29
2019-01-20T19:03:03.551Z,84.71
2019-01-20T19:07:06.291Z,84.29
2019-01-20T19:11:07.270Z,83.68
2019-01-20T19:15:09.519Z,84.73
2019-01-20T19:19:10.495Z,85.12
2019-01-20T19:23:11.810Z,85.42
2019-01-20T19:27:12.891Z,84.82
2019-01-20T19:31:14.153Z,84.77
2019-01-20T19:35:15.776Z,84.75
2019-01-20T19:39:17.011Z,84.29
2019-01-20T19:43:18.215Z,83.61
2019-01-20T19:47:19.727Z,83.73
2019-01-20T19:51:20.751Z,83.54
2019-01-20T19:55:24.456Z,83.68
2019-01-20T19:59:26.071Z,83.70
2019-01-20T20:03:27.391Z,83.55
2019-01-20T20:07:30.290Z,83.54
2019-01-20T20:11:31.596Z,84.41
2019-01-20T20:15:33.030Z,84.36
2019-01-20T20:19:34.716Z,85.66
2019-01-20T20:23:36.011Z,86.35
2019-01-20T20:27:37.490Z,85.05
2019-01-20T20:31:39.005Z,84.82
2019-01-20T20:35:40.460Z,84.86
2019-01-20T20:39:41.707Z,84.76
2019-01-20T20:43:43.380Z,85.18
2019-01-20T20:47:45.071Z,84.75
2019-01-20T20:51:46.543Z,84.68
2019-01-20T20:55:48.508Z,84.74
2019-01-20T20:59:49.886Z,84.31
2019-01-20T21:03:52.189Z,84.24
2019-01-20T21:07:53.562Z,84.02
2019-01-20T21:11:55.058Z,83.73
2019-01-20T21:15:56.299Z,83.52
2019-01-20T21:19:57.700Z,83.57
2019-01-20T21:24:00.637Z,83.28
2019-01-20T21:28:02.075Z,82.73
2019-01-20T21:32:03.438Z,83.75
2019-01-20T21:36:04.762Z,83.53
2019-01-20T21:40:06.771Z,83.25
2019-01-20T21:44:08.027Z,83.24
2019-01-20T21:48:09.879Z,82.99
2019-01-20T21:52:12.059Z,82.74
2019-01-20T21:56:13.954Z,83.30
2019-01-20T22:00:19.431Z,82.70
2019-01-20T22:04:21.403Z,83.31
2019-01-20T22:08:22.805Z,84.35
2019-01-20T22:12:23.984Z,84.78
2019-01-20T22:16:25.447Z,83.20
2019-01-20T22:20:26.816Z,83.61
2019-01-20T22:24:28.124Z,83.76
2019-01-20T22:28:31.208Z,83.37
2019-01-20T22:32:32.806Z,82.87
2019-01-20T22:36:34.501Z,83.01
2019-01-20T22:40:35.826Z,82.68
2019-01-20T22:44:37.355Z,82.45
2019-01-20T22:48:38.536Z,82.66
2019-01-20T22:52:39.826Z,82.64
2019-01-20T22:56:41.048Z,82.94
2019-01-20T23:00:58.595Z,82.76
2019-01-20T23:05:00.010Z,82.77
2019-01-20T23:09:06.545Z,82.79
2019-01-20T23:13:05.868Z,82.60
2019-01-20T23:17:08.126Z,82.80
2019-01-20T23:21:10.118Z,82.64
2019-01-20T23:25:11.851Z,82.21
2019-01-20T23:29:13.650Z,82.39
2019-01-20T23:33:15.282Z,82.37
2019-01-20T23:37:16.667Z,82.50
2019-01-20T23:41:18.406Z,82.17
2019-01-20T23:45:19.883Z,82.44
2019-01-20T23:49:21.445Z,82.03
2019-01-20T23:53:23.068Z,82.00
2019-01-20T23:57:24.643Z,82.15
